createdAt,value
2019-04-06T00:01:22.371Z,38.70
2019-04-06T00:03:48.776Z,38.10
2019-04-06T00:06:15.003Z,38.20
2019-04-06T00:08:41.466Z,38.10
2019-04-06T00:11:07.888Z,38.10
2019-04-06T00:13:34.323Z,38.20
2019-04-06T00:16:00.564Z,38.10
2019-04-06T00:18:26.985Z,38.20
2019-04-06T00:20:53.179Z,38.20
2019-04-06T00:23:19.436Z,38.20
2019-04-06T00:25:45.680Z,38.20
2019-04-06T00:28:11.918Z,38.20
2019-04-06T00:30:38.340Z,38.20
2019-04-06T00:33:04.997Z,38.20
2019-04-06T00:35:31.398Z,38.20
2019-04-06T00:37:57.816Z,38.20
2019-04-06T00:40:24.039Z,38.20
2019-04-06T00:42:50.281Z,38.30
2019-04-06T00:45:18.156Z,38.30
2019-04-06T00:47:44.573Z,38.30
2019-04-06T00:50:10.803Z,38.30
2019-04-06T00:52:37.072Z,38.20
2019-04-06T00:55:03.506Z,38.30
2019-04-06T00:57:29.909Z,38.20
2019-04-06T00:59:56.144Z,38.30
2019-04-06T01:02:22.607Z,38.30
2019-04-06T01:04:49.025Z,38.30
2019-04-06T01:07:15.438Z,38.30
2019-04-06T01:09:41.672Z,38.30
2019-04-06T01:12:07.899Z,38.30
2019-04-06T01:14:34.124Z,38.30
2019-04-06T01:17:00.552Z,38.20
2019-04-06T01:19:28.432Z,38.40
2019-04-06T01:21:54.650Z,38.30
2019-04-06T01:24:20.916Z,38.40
2019-04-06T01:26:47.102Z,38.40
2019-04-06T01:29:13.578Z,38.40
2019-04-06T01:31:39.996Z,39.10
2019-04-06T01:34:06.210Z,38.40
2019-04-06T01:36:33.513Z,38.50
2019-04-06T01:39:00.130Z,38.50
2019-04-06T01:41:26.538Z,38.40
2019-04-06T01:43:52.985Z,38.40
2019-04-06T01:46:19.395Z,38.40
2019-04-06T01:48:45.669Z,38.40
2019-04-06T01:51:12.051Z,38.40
2019-04-06T01:53:38.345Z,38.50
2019-04-06T01:56:04.695Z,38.50
2019-04-06T01:58:30.918Z,38.60
2019-04-06T02:00:57.196Z,38.50
2019-04-06T02:03:23.595Z,38.50
2019-04-06T02:05:50.053Z,38.50
2019-04-06T02:08:16.461Z,38.60
2019-04-06T02:10:42.964Z,38.60
2019-04-06T02:13:09.358Z,38.60
2019-04-06T02:15:35.799Z,38.60
2019-04-06T02:18:02.924Z,38.50
2019-04-06T02:20:29.262Z,38.60
2019-04-06T02:22:55.697Z,38.10
2019-04-06T02:25:22.132Z,38.60
2019-04-06T02:27:48.358Z,38.60
2019-04-06T02:30:16.224Z,38.60
2019-04-06T02:32:42.465Z,38.50
2019-04-06T02:35:08.900Z,38.60
2019-04-06T02:37:35.149Z,38.70
2019-04-06T02:40:01.560Z,38.70
2019-04-06T02:42:27.780Z,38.70
2019-04-06T02:44:53.987Z,38.60
2019-04-06T02:47:20.249Z,38.70
2019-04-06T02:49:46.680Z,39.20
2019-04-06T02:52:13.131Z,38.60
2019-04-06T02:54:39.835Z,38.70
2019-04-06T02:57:05.949Z,38.70
2019-04-06T02:59:33.835Z,38.70
2019-04-06T03:02:00.063Z,38.60
2019-04-06T03:04:26.599Z,38.60
2019-04-06T03:06:53.351Z,38.70
2019-04-06T03:09:19.598Z,38.60
2019-04-06T03:11:45.987Z,38.70
2019-04-06T03:14:12.422Z,38.70
2019-04-06T03:16:38.648Z,38.70
2019-04-06T03:19:05.697Z,38.80
2019-04-06T03:21:31.932Z,38.80
2019-04-06T03:23:58.980Z,38.70
2019-04-06T03:26:25.273Z,38.70
2019-04-06T03:28:51.639Z,38.80
2019-04-06T03:31:24.078Z,38.80
2019-04-06T03:33:45.929Z,38.80
2019-04-06T03:36:12.161Z,38.80
2019-04-06T03:38:38.393Z,38.80
2019-04-06T03:41:06.413Z,38.80
2019-04-06T03:43:32.707Z,38.90
2019-04-06T03:45:59.163Z,38.70
2019-04-06T03:48:25.584Z,38.80
2019-04-06T03:50:52.022Z,38.90
2019-04-06T03:53:18.429Z,38.90
2019-04-06T03:55:46.333Z,38.80
2019-04-06T03:58:12.772Z,38.80
2019-04-06T04:00:39.169Z,38.90
2019-04-06T04:03:06.223Z,38.80
2019-04-06T04:05:32.773Z,38.80
2019-04-06T04:07:59.114Z,38.70
2019-04-06T04:10:25.527Z,38.80
2019-04-06T04:12:51.758Z,38.90
2019-04-06T04:15:18.192Z,38.80
2019-04-06T04:17:44.662Z,38.80
2019-04-06T04:20:11.039Z,38.90
2019-04-06T04:22:37.385Z,38.90
2019-04-06T04:25:03.740Z,38.80
2019-04-06T04:27:30.811Z,38.80
2019-04-06T04:29:56.578Z,39.00
2019-04-06T04:32:22.881Z,38.90
2019-04-06T04:34:49.231Z,38.90
2019-04-06T04:37:15.413Z,38.90
2019-04-06T04:39:41.692Z,38.90
2019-04-06T04:42:08.157Z,38.90
2019-04-06T04:44:34.589Z,38.90
2019-04-06T04:47:01.022Z,39.00
2019-04-06T04:49:27.417Z,39.00
2019-04-06T04:51:53.901Z,39.60
2019-04-06T04:54:20.273Z,39.00
2019-04-06T04:56:46.508Z,39.00
2019-04-06T04:59:12.777Z,39.00
2019-04-06T05:01:39.276Z,39.00
2019-04-06T05:04:05.635Z,39.00
2019-04-06T05:06:32.040Z,39.00
2019-04-06T05:08:58.262Z,39.00
2019-04-06T05:11:24.744Z,39.00
2019-04-06T05:13:51.329Z,39.00
2019-04-06T05:16:17.725Z,39.00
2019-04-06T05:18:44.015Z,39.10
2019-04-06T05:21:10.467Z,39.00
2019-04-06T05:23:36.891Z,39.10
2019-04-06T05:26:03.290Z,39.10
2019-04-06T05:28:29.570Z,39.10
2019-04-06T05:30:55.962Z,39.10
2019-04-06T05:33:22.192Z,39.20
2019-04-06T05:35:48.689Z,39.20
2019-04-06T05:38:15.033Z,39.70
2019-04-06T05:40:41.314Z,39.10
2019-04-06T05:43:07.515Z,39.20
2019-04-06T05:45:33.727Z,39.10
2019-04-06T05:48:00.061Z,39.20
2019-04-06T05:50:26.404Z,39.20
2019-04-06T05:52:52.631Z,39.20
2019-04-06T05:55:20.556Z,39.20
2019-04-06T05:57:46.932Z,39.20
2019-04-06T06:00:13.161Z,39.20
2019-04-06T06:02:41.424Z,39.20
2019-04-06T06:05:05.832Z,39.20
2019-04-06T06:07:33.682Z,39.20
2019-04-06T06:10:01.587Z,39.30
2019-04-06T06:12:27.985Z,39.20
2019-04-06T06:14:54.452Z,39.20
2019-04-06T06:17:20.960Z,39.20
2019-04-06T06:19:47.298Z,39.20
2019-04-06T06:22:13.507Z,39.20
2019-04-06T06:24:39.765Z,39.20
2019-04-06T06:27:06.009Z,39.20
2019-04-06T06:29:32.454Z,39.30
2019-04-06T06:31:58.659Z,39.20
2019-04-06T06:34:25.060Z,39.90
2019-04-06T06:36:51.292Z,39.20
2019-04-06T06:39:17.531Z,39.30
2019-04-06T06:41:45.425Z,39.30
2019-04-06T06:44:11.821Z,39.30
2019-04-06T06:46:38.058Z,39.30
2019-04-06T06:49:05.288Z,39.30
2019-04-06T06:51:31.665Z,39.30
2019-04-06T06:53:57.959Z,39.30
2019-04-06T06:56:24.292Z,39.40
2019-04-06T06:58:50.642Z,39.40
2019-04-06T07:01:17.085Z,39.30
2019-04-06T07:03:43.537Z,39.30
2019-04-06T07:06:09.982Z,39.40
2019-04-06T07:08:36.368Z,39.50
2019-04-06T07:11:04.221Z,39.40
2019-04-06T07:13:30.478Z,39.40
2019-04-06T07:15:56.975Z,39.40
2019-04-06T07:18:23.366Z,39.40
2019-04-06T07:20:49.797Z,39.40
2019-04-06T07:23:16.296Z,39.40
2019-04-06T07:25:42.642Z,39.50
2019-04-06T07:28:08.984Z,39.40
2019-04-06T07:30:35.294Z,39.50
2019-04-06T07:33:01.523Z,39.50
2019-04-06T07:35:27.736Z,39.50
2019-04-06T07:37:57.291Z,39.50
2019-04-06T07:40:23.678Z,39.50
2019-04-06T07:42:49.916Z,39.50
2019-04-06T07:45:16.127Z,39.60
2019-04-06T07:47:42.403Z,39.50
2019-04-06T07:50:09.023Z,39.50
2019-04-06T07:52:35.423Z,39.60
2019-04-06T07:55:01.688Z,39.60
2019-04-06T07:57:28.142Z,39.60
2019-04-06T07:59:54.660Z,39.60
2019-04-06T08:02:20.960Z,39.60
2019-04-06T08:04:47.206Z,39.70
2019-04-06T08:07:14.243Z,39.70
2019-04-06T08:09:40.450Z,39.60
2019-04-06T08:12:06.742Z,39.70
2019-04-06T08:14:33.139Z,39.70
2019-04-06T08:16:59.336Z,39.70
2019-04-06T08:19:25.598Z,39.70
2019-04-06T08:21:51.833Z,39.70
2019-04-06T08:24:19.704Z,39.80
2019-04-06T08:26:46.258Z,39.70
2019-04-06T08:29:12.395Z,39.80
2019-04-06T08:31:38.821Z,39.80
2019-04-06T08:34:05.245Z,39.80
2019-04-06T08:36:31.663Z,39.70
2019-04-06T08:38:58.760Z,39.80
2019-04-06T08:41:25.139Z,39.70
2019-04-06T08:43:51.621Z,39.90
2019-04-06T08:46:17.995Z,39.90
2019-04-06T08:48:44.269Z,39.90
2019-04-06T08:51:11.203Z,39.90
2019-04-06T08:53:37.297Z,39.90
2019-04-06T08:56:05.424Z,39.90
2019-04-06T08:58:31.595Z,39.90
2019-04-06T09:00:57.929Z,39.90
2019-04-06T09:03:24.265Z,39.90
2019-04-06T09:05:50.497Z,39.90
2019-04-06T09:08:16.718Z,39.90
2019-04-06T09:10:42.995Z,39.90
2019-04-06T09:13:09.628Z,39.90
2019-04-06T09:15:35.845Z,40.00
2019-04-06T09:18:02.294Z,40.00
2019-04-06T09:20:28.695Z,40.00
2019-04-06T09:22:55.158Z,39.90
2019-04-06T09:25:21.556Z,40.60
2019-04-06T09:27:48.001Z,39.90
2019-04-06T09:30:14.445Z,40.00
2019-04-06T09:32:40.830Z,40.00
2019-04-06T09:35:07.098Z,40.00
2019-04-06T09:37:33.539Z,40.00
2019-04-06T09:40:00.394Z,40.00
2019-04-06T09:42:26.376Z,40.00
2019-04-06T09:44:52.591Z,40.00
2019-04-06T09:47:19.125Z,40.00
2019-04-06T09:49:45.272Z,40.00
2019-04-06T09:52:12.305Z,40.00
2019-04-06T09:54:38.759Z,40.00
2019-04-06T09:57:04.775Z,40.00
2019-04-06T09:59:36.035Z,40.00
2019-04-06T10:01:57.639Z,40.00
2019-04-06T10:04:23.874Z,40.00
2019-04-06T10:06:50.302Z,40.00
2019-04-06T10:09:16.792Z,40.10
2019-04-06T10:11:43.168Z,40.10
2019-04-06T10:14:09.427Z,40.10
2019-04-06T10:16:35.967Z,40.10
2019-04-06T10:19:02.277Z,40.10
2019-04-06T10:21:28.688Z,40.10
2019-04-06T10:23:56.568Z,40.20
2019-04-06T10:26:24.419Z,40.10
2019-04-06T10:28:52.296Z,40.10
2019-04-06T10:31:18.604Z,40.10
2019-04-06T10:33:44.977Z,40.10
2019-04-06T10:36:11.393Z,40.10
2019-04-06T10:38:39.387Z,40.20
2019-04-06T10:41:05.746Z,40.10
2019-04-06T10:43:32.118Z,40.10
2019-04-06T10:45:58.343Z,40.10
2019-04-06T10:48:24.620Z,40.10
2019-04-06T10:50:51.018Z,40.20
2019-04-06T10:53:17.240Z,40.20
2019-04-06T10:55:43.742Z,40.20
2019-04-06T10:58:09.911Z,40.20
2019-04-06T11:00:36.403Z,40.20
2019-04-06T11:03:02.560Z,40.20
2019-04-06T11:05:30.488Z,40.20
2019-04-06T11:07:56.891Z,40.20
2019-04-06T11:10:23.322Z,40.20
2019-04-06T11:12:49.508Z,40.20
2019-04-06T11:15:15.868Z,40.20
2019-04-06T11:17:42.231Z,40.20
2019-04-06T11:20:08.611Z,40.50
2019-04-06T11:22:35.044Z,40.50
2019-04-06T11:25:01.290Z,40.60
2019-04-06T11:27:27.769Z,40.60
2019-04-06T11:29:53.981Z,40.60
2019-04-06T11:32:20.354Z,40.80
2019-04-06T11:34:46.623Z,40.90
2019-04-06T11:37:12.822Z,40.80
2019-04-06T11:39:39.053Z,41.00
2019-04-06T11:42:05.507Z,41.00
2019-04-06T11:44:31.753Z,41.10
2019-04-06T11:46:58.251Z,41.20
2019-04-06T11:49:24.586Z,41.20
2019-04-06T11:51:52.617Z,41.30
2019-04-06T11:54:18.896Z,41.40
2019-04-06T11:56:45.099Z,41.30
2019-04-06T11:59:11.359Z,41.40
2019-04-06T12:01:37.580Z,41.30
2019-04-06T12:04:05.484Z,41.50
2019-04-06T12:06:31.860Z,41.40
2019-04-06T12:08:58.358Z,41.60
2019-04-06T12:11:24.584Z,41.70
2019-04-06T12:13:50.979Z,41.60
2019-04-06T12:16:17.795Z,41.70
2019-04-06T12:18:43.891Z,41.70
2019-04-06T12:21:10.267Z,41.60
2019-04-06T12:23:38.402Z,41.90
2019-04-06T12:26:04.838Z,41.80
2019-04-06T12:28:31.455Z,41.90
2019-04-06T12:30:58.158Z,42.00
2019-04-06T12:33:24.315Z,41.90
2019-04-06T12:35:50.735Z,41.90
2019-04-06T12:38:16.971Z,42.00
2019-04-06T12:40:43.532Z,42.00
2019-04-06T12:43:10.258Z,41.90
2019-04-06T12:45:36.953Z,41.90
2019-04-06T12:48:03.095Z,42.00
2019-04-06T12:50:29.527Z,42.10
2019-04-06T12:52:57.235Z,42.20
2019-04-06T12:55:23.627Z,42.00
2019-04-06T12:57:50.096Z,42.10
2019-04-06T13:00:16.747Z,42.30
2019-04-06T13:02:43.948Z,42.30
2019-04-06T13:05:12.456Z,42.20
2019-04-06T13:07:36.640Z,42.30
2019-04-06T13:10:03.040Z,42.50
2019-04-06T13:12:29.516Z,42.50
2019-04-06T13:14:55.720Z,42.40
2019-04-06T13:17:21.984Z,42.50
2019-04-06T13:19:48.723Z,42.50
2019-04-06T13:22:14.852Z,42.50
2019-04-06T13:24:41.220Z,42.60
2019-04-06T13:27:07.680Z,42.60
2019-04-06T13:29:34.238Z,42.50
2019-04-06T13:32:00.608Z,42.60
2019-04-06T13:34:26.952Z,42.70
2019-04-06T13:36:53.184Z,42.80
2019-04-06T13:39:19.416Z,42.70
2019-04-06T13:41:45.684Z,42.80
2019-04-06T13:44:12.071Z,42.70
2019-04-06T13:46:39.963Z,42.70
2019-04-06T13:49:06.525Z,42.60
2019-04-06T13:51:32.850Z,42.80
2019-04-06T13:53:59.271Z,42.70
2019-04-06T13:56:25.679Z,42.90
2019-04-06T13:58:51.934Z,43.00
2019-04-06T14:01:18.590Z,42.90
2019-04-06T14:03:45.592Z,42.90
2019-04-06T14:06:12.028Z,42.90
2019-04-06T14:08:38.606Z,42.90
2019-04-06T14:11:04.695Z,43.00
2019-04-06T14:13:31.291Z,43.10
2019-04-06T14:15:57.709Z,43.20
2019-04-06T14:18:24.315Z,43.10
2019-04-06T14:20:50.429Z,43.00
2019-04-06T14:23:16.874Z,43.20
2019-04-06T14:25:43.235Z,43.30
2019-04-06T14:28:09.916Z,43.30
2019-04-06T14:30:35.975Z,43.30
2019-04-06T14:33:02.403Z,43.10
2019-04-06T14:35:28.938Z,43.30
2019-04-06T14:37:55.053Z,43.10
2019-04-06T14:40:21.556Z,43.30
2019-04-06T14:42:47.695Z,43.40
2019-04-06T14:45:13.976Z,43.30
2019-04-06T14:47:40.432Z,43.40
2019-04-06T14:50:07.047Z,43.50
2019-04-06T14:52:33.491Z,43.50
2019-04-06T14:54:59.963Z,43.50
2019-04-06T14:57:26.380Z,43.40
2019-04-06T14:59:53.215Z,43.60
2019-04-06T15:02:19.626Z,43.60
2019-04-06T15:04:46.016Z,43.60
2019-04-06T15:07:12.978Z,43.70
2019-04-06T15:09:38.915Z,43.60
2019-04-06T15:12:05.966Z,43.60
2019-04-06T15:14:32.610Z,43.60
2019-04-06T15:16:59.218Z,43.50
2019-04-06T15:19:25.908Z,43.80
2019-04-06T15:21:51.887Z,43.50
2019-04-06T15:24:18.322Z,43.60
2019-04-06T15:26:44.544Z,43.70
2019-04-06T15:29:10.961Z,43.80
2019-04-06T15:31:47.485Z,43.80
2019-04-06T15:34:04.079Z,43.70
2019-04-06T15:36:30.295Z,43.80
2019-04-06T15:38:56.713Z,43.80
2019-04-06T15:41:23.395Z,43.80
2019-04-06T15:43:50.003Z,43.80
2019-04-06T15:46:16.101Z,44.00
2019-04-06T15:48:42.431Z,44.00
2019-04-06T15:51:10.584Z,43.70
2019-04-06T15:53:36.724Z,43.80
2019-04-06T15:56:03.547Z,43.90
2019-04-06T15:58:29.811Z,43.90
2019-04-06T16:00:56.883Z,43.90
2019-04-06T16:03:23.064Z,43.90
2019-04-06T16:05:49.318Z,44.00
2019-04-06T16:08:15.903Z,44.00
2019-04-06T16:10:42.063Z,44.00
2019-04-06T16:13:08.651Z,44.00
2019-04-06T16:15:35.060Z,44.10
2019-04-06T16:18:01.482Z,44.20
2019-04-06T16:20:28.042Z,44.10
2019-04-06T16:22:53.986Z,44.20
2019-04-06T16:25:20.408Z,44.20
2019-04-06T16:27:46.839Z,44.20
2019-04-06T16:30:13.480Z,44.20
2019-04-06T16:32:39.954Z,44.10
2019-04-06T16:35:06.581Z,44.10
2019-04-06T16:37:32.573Z,44.20
2019-04-06T16:39:58.974Z,44.20
2019-04-06T16:42:25.191Z,44.20
2019-04-06T16:44:51.603Z,44.30
2019-04-06T16:47:18.104Z,44.20
2019-04-06T16:49:44.499Z,44.20
2019-04-06T16:52:10.911Z,44.20
2019-04-06T16:54:37.199Z,44.30
2019-04-06T16:57:03.440Z,44.30
2019-04-06T16:59:29.834Z,44.30
2019-04-06T17:01:56.103Z,44.20
2019-04-06T17:04:22.523Z,44.30
2019-04-06T17:06:48.928Z,44.20
2019-04-06T17:09:15.705Z,44.30
2019-04-06T17:11:41.994Z,44.30
2019-04-06T17:14:08.485Z,44.30
2019-04-06T17:16:35.065Z,44.30
2019-04-06T17:19:01.287Z,44.30
2019-04-06T17:21:27.747Z,44.20
2019-04-06T17:23:54.169Z,44.20
2019-04-06T17:26:20.540Z,44.20
2019-04-06T17:28:46.840Z,44.20
2019-04-06T17:31:13.508Z,44.20
2019-04-06T17:33:40.153Z,44.20
2019-04-06T17:36:06.564Z,44.20
2019-04-06T17:38:33.032Z,44.20
2019-04-06T17:40:59.479Z,44.20
2019-04-06T17:43:26.069Z,44.20
2019-04-06T17:45:52.267Z,44.20
2019-04-06T17:48:20.393Z,44.30
2019-04-06T17:50:46.776Z,44.20
2019-04-06T17:53:13.593Z,44.10
2019-04-06T17:55:40.325Z,44.10
2019-04-06T17:58:07.548Z,44.20
2019-04-06T18:00:34.047Z,44.10
2019-04-06T18:03:00.611Z,44.20
2019-04-06T18:05:27.245Z,44.10
2019-04-06T18:07:53.501Z,44.10
2019-04-06T18:10:19.909Z,44.20
2019-04-06T18:12:46.549Z,44.20
2019-04-06T18:15:13.187Z,44.10
2019-04-06T18:17:39.621Z,44.10
2019-04-06T18:20:06.269Z,44.10
2019-04-06T18:22:33.488Z,44.10
2019-04-06T18:24:59.527Z,44.10
2019-04-06T18:27:26.314Z,44.10
2019-04-06T18:29:52.811Z,44.10
2019-04-06T18:32:19.297Z,44.10
2019-04-06T18:34:45.837Z,44.10
2019-04-06T18:37:12.317Z,44.10
2019-04-06T18:39:39.264Z,43.90
2019-04-06T18:42:05.378Z,44.00
2019-04-06T18:44:32.035Z,44.10
2019-04-06T18:46:58.593Z,44.00
2019-04-06T18:49:25.004Z,44.00
2019-04-06T18:51:51.704Z,44.00
2019-04-06T18:54:17.964Z,44.10
2019-04-06T18:56:44.391Z,44.10
2019-04-06T18:59:11.036Z,44.10
2019-04-06T19:01:37.460Z,44.10
2019-04-06T19:04:03.912Z,44.10
2019-04-06T19:06:30.551Z,44.00
2019-04-06T19:08:57.179Z,44.10
2019-04-06T19:11:23.572Z,44.00
2019-04-06T19:13:49.929Z,44.00
2019-04-06T19:16:17.353Z,44.00
2019-04-06T19:18:42.913Z,44.60
2019-04-06T19:21:09.565Z,44.00
2019-04-06T19:23:35.761Z,44.00
2019-04-06T19:26:02.800Z,44.00
2019-04-06T19:28:29.036Z,43.90
2019-04-06T19:30:55.373Z,44.00
2019-04-06T19:33:25.479Z,44.00
2019-04-06T19:35:49.430Z,43.90
2019-04-06T19:38:15.376Z,43.90
2019-04-06T19:40:41.827Z,43.90
2019-04-06T19:43:09.218Z,43.90
2019-04-06T19:45:35.318Z,43.90
2019-04-06T19:48:02.046Z,44.50
2019-04-06T19:50:28.819Z,43.90
2019-04-06T19:52:55.244Z,43.90
2019-04-06T19:55:22.828Z,43.90
2019-04-06T19:57:48.508Z,43.90
2019-04-06T20:00:14.914Z,43.90
2019-04-06T20:02:41.891Z,43.90
2019-04-06T20:05:07.768Z,43.90
2019-04-06T20:07:35.662Z,43.80
2019-04-06T20:10:02.645Z,43.70
2019-04-06T20:12:28.499Z,43.70
2019-04-06T20:14:56.374Z,43.70
2019-04-06T20:17:24.280Z,43.80
2019-04-06T20:19:50.774Z,43.70
2019-04-06T20:22:17.143Z,43.70
2019-04-06T20:24:44.107Z,43.70
2019-04-06T20:27:10.497Z,43.70
2019-04-06T20:29:36.477Z,43.60
2019-04-06T20:32:03.297Z,43.70
2019-04-06T20:34:29.935Z,43.60
2019-04-06T20:36:56.870Z,43.60
2019-04-06T20:39:22.777Z,43.60
2019-04-06T20:41:49.328Z,43.60
2019-04-06T20:44:15.591Z,43.60
2019-04-06T20:46:41.888Z,43.50
2019-04-06T20:49:09.209Z,43.50
2019-04-06T20:51:35.127Z,43.50
2019-04-06T20:54:01.638Z,43.50
2019-04-06T20:56:28.315Z,43.50
2019-04-06T20:58:54.632Z,43.50
2019-04-06T21:01:20.962Z,43.50
2019-04-06T21:03:58.785Z,43.50
2019-04-06T21:06:13.743Z,43.50
2019-04-06T21:08:40.604Z,43.40
2019-04-06T21:11:07.206Z,43.40
2019-04-06T21:13:33.440Z,43.40
2019-04-06T21:15:59.706Z,43.40
2019-04-06T21:18:26.337Z,43.40
2019-04-06T21:20:53.286Z,43.40
2019-04-06T21:23:20.692Z,43.40
2019-04-06T21:25:46.644Z,43.40
2019-04-06T21:28:13.251Z,43.40
2019-04-06T21:30:39.899Z,43.30
2019-04-06T21:33:05.920Z,43.40
2019-04-06T21:35:32.225Z,43.30
2019-04-06T21:37:58.598Z,43.30
2019-04-06T21:40:25.076Z,43.30
2019-04-06T21:42:51.261Z,43.30
2019-04-06T21:45:17.516Z,43.30
2019-04-06T21:47:44.229Z,43.30
2019-04-06T21:50:11.084Z,43.30
2019-04-06T21:52:37.077Z,43.30
2019-04-06T21:55:03.741Z,43.30
2019-04-06T21:57:29.865Z,43.30
2019-04-06T21:59:56.358Z,43.30
2019-04-06T22:02:22.886Z,43.20
2019-04-06T22:04:49.706Z,43.20
2019-04-06T22:07:15.803Z,43.20
2019-04-06T22:09:42.365Z,43.20
2019-04-06T22:12:08.648Z,43.20
2019-04-06T22:14:34.870Z,43.20
2019-04-06T22:17:01.536Z,43.20
2019-04-06T22:19:27.846Z,43.20
2019-04-06T22:21:55.393Z,43.20
2019-04-06T22:24:21.323Z,43.20
2019-04-06T22:26:47.509Z,43.20
2019-04-06T22:29:14.017Z,43.20
2019-04-06T22:31:41.512Z,43.10
2019-04-06T22:34:07.376Z,43.10
2019-04-06T22:36:33.584Z,43.10
2019-04-06T22:39:00.628Z,43.00
2019-04-06T22:41:27.324Z,43.00
2019-04-06T22:43:53.711Z,43.00
2019-04-06T22:46:20.236Z,43.00
2019-04-06T22:48:46.889Z,43.00
2019-04-06T22:51:13.008Z,43.00
2019-04-06T22:53:39.683Z,43.00
2019-04-06T22:56:05.863Z,43.00
2019-04-06T22:58:32.111Z,43.00
2019-04-06T23:00:58.560Z,43.00
2019-04-06T23:03:25.225Z,43.00
2019-04-06T23:05:51.781Z,43.00
2019-04-06T23:08:17.655Z,43.00
2019-04-06T23:10:43.910Z,43.60
2019-04-06T23:13:10.292Z,43.00
2019-04-06T23:15:37.123Z,43.00
2019-04-06T23:18:03.567Z,43.00
2019-04-06T23:20:29.901Z,43.00
2019-04-06T23:22:56.077Z,42.90
2019-04-06T23:25:22.463Z,42.90
2019-04-06T23:27:48.717Z,42.90
2019-04-06T23:30:14.931Z,42.90
2019-04-06T23:32:41.374Z,42.90
2019-04-06T23:35:08.132Z,42.90
2019-04-06T23:37:34.266Z,42.90
2019-04-06T23:40:00.717Z,42.90
2019-04-06T23:42:27.134Z,42.90
2019-04-06T23:44:53.366Z,42.90
2019-04-06T23:47:19.769Z,42.80
2019-04-06T23:49:46.433Z,42.80
2019-04-06T23:52:12.821Z,42.80
2019-04-06T23:54:39.901Z,42.80
2019-04-06T23:57:05.890Z,42.80
2019-04-06T23:59:31.738Z,42.80
